sensor_id;sensor_type;location;lat;lon;timestamp;P1;durP1;ratioP1;P2;durP2;ratioP2
3865;SDS011;1948;53.250;10.412;2023-06-01T00:02:16;24.13;;;12.00;;
3865;SDS011;1948;53.250;10.412;2023-06-01T00:04:46;28.70;;;12.20;;
3865;SDS011;1948;53.250;10.412;2023-06-01T00:07:14;21.57;;;11.87;;
3865;SDS011;1948;53.250;10.412;2023-06-01T00:09:44;26.93;;;13.57;;
3865;SDS011;1948;53.250;10.412;2023-06-01T00:12:11;33.80;;;14.90;;
3865;SDS011;1948;53.250;10.412;2023-06-01T00:14:40;27.53;;;15.23;;
3865;SDS011;1948;53.250;10.412;2023-06-01T00:17:08;44.00;;;20.20;;
3865;SDS011;1948;53.250;10.412;2023-06-01T00:19:36;41.20;;;19.77;;
3865;SDS011;1948;53.250;10.412;2023-06-01T00:22:04;31.93;;;18.20;;
3865;SDS011;1948;53.250;10.412;2023-06-01T00:24:33;23.67;;;16.73;;
3865;SDS011;1948;53.250;10.412;2023-06-01T00:27:00;31.57;;;17.03;;
3865;SDS011;1948;53.250;10.412;2023-06-01T00:29:29;37.10;;;19.90;;
3865;SDS011;1948;53.250;10.412;2023-06-01T00:31:56;33.73;;;20.50;;
3865;SDS011;1948;53.250;10.412;2023-06-01T00:34:23;40.67;;;19.53;;
3865;SDS011;1948;53.250;10.412;2023-06-01T00:36:50;36.23;;;19.80;;
3865;SDS011;1948;53.250;10.412;2023-06-01T00:39:17;32.87;;;18.67;;
3865;SDS011;1948;53.250;10.412;2023-06-01T00:41:44;38.73;;;19.43;;
3865;SDS011;1948;53.250;10.412;2023-06-01T00:44:14;32.70;;;18.10;;
3865;SDS011;1948;53.250;10.412;2023-06-01T00:46:43;29.80;;;18.13;;
3865;SDS011;1948;53.250;10.412;2023-06-01T00:49:11;40.70;;;14.80;;
3865;SDS011;1948;53.250;10.412;2023-06-01T00:51:40;39.87;;;15.20;;
3865;SDS011;1948;53.250;10.412;2023-06-01T00:54:09;20.43;;;13.40;;
3865;SDS011;1948;53.250;10.412;2023-06-01T00:56:37;26.57;;;12.93;;
3865;SDS011;1948;53.250;10.412;2023-06-01T00:59:05;26.97;;;13.30;;
3865;SDS011;1948;53.250;10.412;2023-06-01T01:01:32;25.73;;;13.50;;
3865;SDS011;1948;53.250;10.412;2023-06-01T01:03:59;33.53;;;13.50;;
3865;SDS011;1948;53.250;10.412;2023-06-01T01:09:52;21.87;;;11.60;;
3865;SDS011;1948;53.250;10.412;2023-06-01T01:12:33;19.33;;;10.87;;
3865;SDS011;1948;53.250;10.412;2023-06-01T01:15:21;21.43;;;11.83;;
3865;SDS011;1948;53.250;10.412;2023-06-01T01:17:54;23.20;;;11.30;;
3865;SDS011;1948;53.250;10.412;2023-06-01T01:20:40;25.97;;;11.10;;
3865;SDS011;1948;53.250;10.412;2023-06-01T01:29:55;25.53;;;9.70;;
3865;SDS011;1948;53.250;10.412;2023-06-01T01:32:32;20.23;;;9.93;;
3865;SDS011;1948;53.250;10.412;2023-06-01T01:35:02;19.07;;;9.50;;
3865;SDS011;1948;53.250;10.412;2023-06-01T01:37:34;20.47;;;10.20;;
3865;SDS011;1948;53.250;10.412;2023-06-01T01:40:04;19.60;;;9.23;;
3865;SDS011;1948;53.250;10.412;2023-06-01T01:42:31;22.83;;;9.80;;
3865;SDS011;1948;53.250;10.412;2023-06-01T01:45:01;21.90;;;10.17;;
3865;SDS011;1948;53.250;10.412;2023-06-01T01:47:34;19.87;;;9.87;;
3865;SDS011;1948;53.250;10.412;2023-06-01T01:50:28;20.50;;;9.13;;
3865;SDS011;1948;53.250;10.412;2023-06-01T01:53:06;28.43;;;10.60;;
3865;SDS011;1948;53.250;10.412;2023-06-01T01:55:35;18.80;;;9.03;;
3865;SDS011;1948;53.250;10.412;2023-06-01T01:58:05;18.20;;;9.17;;
3865;SDS011;1948;53.250;10.412;2023-06-01T02:00:33;25.03;;;8.70;;
3865;SDS011;1948;53.250;10.412;2023-06-01T02:03:00;26.27;;;8.67;;
3865;SDS011;1948;53.250;10.412;2023-06-01T02:05:30;18.33;;;7.43;;
3865;SDS011;1948;53.250;10.412;2023-06-01T02:07:57;15.10;;;7.50;;
3865;SDS011;1948;53.250;10.412;2023-06-01T02:10:24;12.40;;;7.20;;
3865;SDS011;1948;53.250;10.412;2023-06-01T02:12:51;17.93;;;7.07;;
3865;SDS011;1948;53.250;10.412;2023-06-01T02:15:20;18.70;;;7.30;;
3865;SDS011;1948;53.250;10.412;2023-06-01T02:17:49;19.80;;;7.67;;
3865;SDS011;1948;53.250;10.412;2023-06-01T02:20:17;27.67;;;8.00;;
3865;SDS011;1948;53.250;10.412;2023-06-01T02:22:44;23.13;;;8.40;;
3865;SDS011;1948;53.250;10.412;2023-06-01T02:25:12;27.07;;;8.07;;
3865;SDS011;1948;53.250;10.412;2023-06-01T02:27:39;16.03;;;8.17;;
3865;SDS011;1948;53.250;10.412;2023-06-01T02:30:09;17.20;;;7.80;;
3865;SDS011;1948;53.250;10.412;2023-06-01T02:32:36;16.10;;;7.67;;
3865;SDS011;1948;53.250;10.412;2023-06-01T02:35:06;18.40;;;7.70;;
3865;SDS011;1948;53.250;10.412;2023-06-01T02:37:33;16.50;;;7.67;;
3865;SDS011;1948;53.250;10.412;2023-06-01T02:40:06;13.30;;;7.53;;
3865;SDS011;1948;53.250;10.412;2023-06-01T02:42:38;18.50;;;7.70;;
3865;SDS011;1948;53.250;10.412;2023-06-01T02:45:05;13.60;;;7.00;;
3865;SDS011;1948;53.250;10.412;2023-06-01T02:47:33;19.87;;;7.67;;
3865;SDS011;1948;53.250;10.412;2023-06-01T02:50:04;20.47;;;8.37;;
3865;SDS011;1948;53.250;10.412;2023-06-01T02:52:36;17.17;;;10.37;;
3865;SDS011;1948;53.250;10.412;2023-06-01T02:55:04;12.67;;;8.40;;
3865;SDS011;1948;53.250;10.412;2023-06-01T02:57:34;18.77;;;9.30;;
3865;SDS011;1948;53.250;10.412;2023-06-01T03:00:01;27.00;;;10.00;;
3865;SDS011;1948;53.250;10.412;2023-06-01T03:02:41;19.37;;;9.00;;
3865;SDS011;1948;53.250;10.412;2023-06-01T03:05:14;25.03;;;10.37;;
3865;SDS011;1948;53.250;10.412;2023-06-01T03:07:44;16.03;;;8.17;;
3865;SDS011;1948;53.250;10.412;2023-06-01T03:10:12;24.17;;;8.27;;
3865;SDS011;1948;53.250;10.412;2023-06-01T03:12:39;22.50;;;6.43;;
3865;SDS011;1948;53.250;10.412;2023-06-01T03:15:08;16.47;;;6.90;;
3865;SDS011;1948;53.250;10.412;2023-06-01T03:17:38;21.83;;;7.00;;
3865;SDS011;1948;53.250;10.412;2023-06-01T03:20:08;28.77;;;8.03;;
3865;SDS011;1948;53.250;10.412;2023-06-01T03:22:44;13.13;;;7.20;;
3865;SDS011;1948;53.250;10.412;2023-06-01T03:25:15;18.63;;;7.53;;
3865;SDS011;1948;53.250;10.412;2023-06-01T03:27:45;22.10;;;7.70;;
3865;SDS011;1948;53.250;10.412;2023-06-01T03:30:12;17.60;;;7.17;;
3865;SDS011;1948;53.250;10.412;2023-06-01T03:32:44;19.90;;;6.90;;
3865;SDS011;1948;53.250;10.412;2023-06-01T03:35:15;12.97;;;6.30;;
3865;SDS011;1948;53.250;10.412;2023-06-01T03:37:43;14.63;;;6.50;;
3865;SDS011;1948;53.250;10.412;2023-06-01T03:40:11;18.43;;;6.10;;
3865;SDS011;1948;53.250;10.412;2023-06-01T03:42:42;17.63;;;5.90;;
3865;SDS011;1948;53.250;10.412;2023-06-01T03:45:13;19.97;;;6.20;;
3865;SDS011;1948;53.250;10.412;2023-06-01T03:47:43;20.37;;;6.03;;
3865;SDS011;1948;53.250;10.412;2023-06-01T03:50:12;20.27;;;7.47;;
3865;SDS011;1948;53.250;10.412;2023-06-01T03:52:42;13.30;;;6.07;;
3865;SDS011;1948;53.250;10.412;2023-06-01T03:55:09;19.17;;;6.47;;
3865;SDS011;1948;53.250;10.412;2023-06-01T03:57:39;9.80;;;5.80;;
3865;SDS011;1948;53.250;10.412;2023-06-01T04:00:07;18.17;;;6.33;;
3865;SDS011;1948;53.250;10.412;2023-06-01T04:02:50;13.17;;;5.47;;
3865;SDS011;1948;53.250;10.412;2023-06-01T04:05:19;17.33;;;6.80;;
3865;SDS011;1948;53.250;10.412;2023-06-01T04:07:52;13.90;;;5.83;;
3865;SDS011;1948;53.250;10.412;2023-06-01T04:10:21;14.83;;;6.20;;
3865;SDS011;1948;53.250;10.412;2023-06-01T04:12:51;18.23;;;5.90;;
3865;SDS011;1948;53.250;10.412;2023-06-01T04:15:19;16.33;;;6.10;;
3865;SDS011;1948;53.250;10.412;2023-06-01T04:17:46;20.07;;;6.83;;
3865;SDS011;1948;53.250;10.412;2023-06-01T04:20:14;27.83;;;8.00;;
3865;SDS011;1948;53.250;10.412;2023-06-01T04:22:43;24.70;;;7.37;;
3865;SDS011;1948;53.250;10.412;2023-06-01T04:25:16;17.40;;;6.33;;
3865;SDS011;1948;53.250;10.412;2023-06-01T04:27:44;17.60;;;5.73;;
3865;SDS011;1948;53.250;10.412;2023-06-01T04:30:14;12.13;;;5.93;;
3865;SDS011;1948;53.250;10.412;2023-06-01T04:32:44;20.63;;;6.50;;
3865;SDS011;1948;53.250;10.412;2023-06-01T04:35:15;22.70;;;6.27;;
3865;SDS011;1948;53.250;10.412;2023-06-01T04:37:42;21.43;;;6.40;;
3865;SDS011;1948;53.250;10.412;2023-06-01T04:40:10;26.33;;;7.07;;
3865;SDS011;1948;53.250;10.412;2023-06-01T04:42:40;16.00;;;5.73;;
3865;SDS011;1948;53.250;10.412;2023-06-01T04:45:15;13.20;;;5.10;;
3865;SDS011;1948;53.250;10.412;2023-06-01T04:47:45;18.70;;;5.80;;
3865;SDS011;1948;53.250;10.412;2023-06-01T04:50:13;13.03;;;6.00;;
3865;SDS011;1948;53.250;10.412;2023-06-01T04:52:43;21.03;;;6.13;;
3865;SDS011;1948;53.250;10.412;2023-06-01T04:55:14;17.70;;;5.37;;
3865;SDS011;1948;53.250;10.412;2023-06-01T04:57:42;14.13;;;5.07;;
3865;SDS011;1948;53.250;10.412;2023-06-01T05:00:10;15.53;;;6.20;;
3865;SDS011;1948;53.250;10.412;2023-06-01T05:02:44;15.87;;;5.23;;
3865;SDS011;1948;53.250;10.412;2023-06-01T05:05:14;24.03;;;5.70;;
3865;SDS011;1948;53.250;10.412;2023-06-01T05:07:42;16.90;;;5.37;;
3865;SDS011;1948;53.250;10.412;2023-06-01T05:10:12;15.53;;;5.03;;
3865;SDS011;1948;53.250;10.412;2023-06-01T05:12:41;19.70;;;6.20;;
3865;SDS011;1948;53.250;10.412;2023-06-01T05:15:09;12.33;;;7.00;;
3865;SDS011;1948;53.250;10.412;2023-06-01T05:17:39;12.90;;;6.17;;
3865;SDS011;1948;53.250;10.412;2023-06-01T05:20:10;21.90;;;6.13;;
3865;SDS011;1948;53.250;10.412;2023-06-01T05:22:37;16.17;;;5.03;;
3865;SDS011;1948;53.250;10.412;2023-06-01T05:25:05;19.10;;;5.77;;
3865;SDS011;1948;53.250;10.412;2023-06-01T05:27:33;28.67;;;5.60;;
3865;SDS011;1948;53.250;10.412;2023-06-01T05:30:00;17.57;;;5.60;;
3865;SDS011;1948;53.250;10.412;2023-06-01T05:32:28;12.73;;;5.27;;
3865;SDS011;1948;53.250;10.412;2023-06-01T05:34:55;10.87;;;5.60;;
3865;SDS011;1948;53.250;10.412;2023-06-01T05:37:22;18.20;;;5.77;;
3865;SDS011;1948;53.250;10.412;2023-06-01T05:39:49;25.73;;;5.67;;
3865;SDS011;1948;53.250;10.412;2023-06-01T05:42:16;38.37;;;6.27;;
3865;SDS011;1948;53.250;10.412;2023-06-01T05:44:43;17.70;;;6.10;;
3865;SDS011;1948;53.250;10.412;2023-06-01T05:47:10;14.20;;;5.80;;
3865;SDS011;1948;53.250;10.412;2023-06-01T05:49:39;17.30;;;6.63;;
3865;SDS011;1948;53.250;10.412;2023-06-01T05:52:08;20.27;;;6.03;;
3865;SDS011;1948;53.250;10.412;2023-06-01T05:54:36;19.13;;;6.03;;
3865;SDS011;1948;53.250;10.412;2023-06-01T05:57:03;20.00;;;7.30;;
3865;SDS011;1948;53.250;10.412;2023-06-01T05:59:33;13.33;;;6.57;;
3865;SDS011;1948;53.250;10.412;2023-06-01T06:02:00;20.83;;;6.27;;
3865;SDS011;1948;53.250;10.412;2023-06-01T06:04:27;16.40;;;5.70;;
3865;SDS011;1948;53.250;10.412;2023-06-01T06:06:54;28.93;;;6.80;;
3865;SDS011;1948;53.250;10.412;2023-06-01T06:09:21;12.13;;;5.53;;
3865;SDS011;1948;53.250;10.412;2023-06-01T06:11:49;19.27;;;5.73;;
3865;SDS011;1948;53.250;10.412;2023-06-01T06:14:16;12.37;;;5.50;;
3865;SDS011;1948;53.250;10.412;2023-06-01T06:16:45;14.50;;;5.47;;
3865;SDS011;1948;53.250;10.412;2023-06-01T06:19:12;33.70;;;6.47;;
3865;SDS011;1948;53.250;10.412;2023-06-01T06:21:42;12.07;;;5.50;;
3865;SDS011;1948;53.250;10.412;2023-06-01T06:24:11;16.30;;;5.67;;
3865;SDS011;1948;53.250;10.412;2023-06-01T06:26:38;12.53;;;5.60;;
3865;SDS011;1948;53.250;10.412;2023-06-01T06:29:05;18.30;;;5.80;;
3865;SDS011;1948;53.250;10.412;2023-06-01T06:31:35;11.50;;;5.37;;
3865;SDS011;1948;53.250;10.412;2023-06-01T06:34:02;10.23;;;5.50;;
3865;SDS011;1948;53.250;10.412;2023-06-01T06:36:29;12.37;;;5.33;;
3865;SDS011;1948;53.250;10.412;2023-06-01T06:38:56;21.10;;;5.53;;
3865;SDS011;1948;53.250;10.412;2023-06-01T06:41:23;20.53;;;5.67;;
3865;SDS011;1948;53.250;10.412;2023-06-01T06:43:51;20.03;;;6.13;;
3865;SDS011;1948;53.250;10.412;2023-06-01T06:46:18;19.13;;;6.23;;
3865;SDS011;1948;53.250;10.412;2023-06-01T06:48:45;14.50;;;6.23;;
3865;SDS011;1948;53.250;10.412;2023-06-01T06:51:14;14.17;;;5.90;;
3865;SDS011;1948;53.250;10.412;2023-06-01T06:53:41;30.67;;;6.10;;
3865;SDS011;1948;53.250;10.412;2023-06-01T06:56:11;27.10;;;6.20;;
3865;SDS011;1948;53.250;10.412;2023-06-01T06:58:38;21.93;;;6.07;;
3865;SDS011;1948;53.250;10.412;2023-06-01T07:01:15;12.13;;;4.97;;
3865;SDS011;1948;53.250;10.412;2023-06-01T07:03:44;13.83;;;5.53;;
3865;SDS011;1948;53.250;10.412;2023-06-01T07:06:15;16.23;;;6.10;;
3865;SDS011;1948;53.250;10.412;2023-06-01T07:08:44;15.77;;;5.10;;
3865;SDS011;1948;53.250;10.412;2023-06-01T07:11:14;9.97;;;4.60;;
3865;SDS011;1948;53.250;10.412;2023-06-01T07:13:41;11.03;;;5.00;;
3865;SDS011;1948;53.250;10.412;2023-06-01T07:16:09;17.90;;;6.20;;
3865;SDS011;1948;53.250;10.412;2023-06-01T07:18:41;18.57;;;4.57;;
3865;SDS011;1948;53.250;10.412;2023-06-01T07:21:10;11.40;;;5.00;;
3865;SDS011;1948;53.250;10.412;2023-06-01T07:23:36;17.40;;;5.50;;
3865;SDS011;1948;53.250;10.412;2023-06-01T07:26:04;15.43;;;5.13;;
3865;SDS011;1948;53.250;10.412;2023-06-01T07:28:30;11.90;;;5.03;;
3865;SDS011;1948;53.250;10.412;2023-06-01T07:30:59;13.83;;;4.70;;
3865;SDS011;1948;53.250;10.412;2023-06-01T07:33:29;11.70;;;4.60;;
3865;SDS011;1948;53.250;10.412;2023-06-01T07:35:57;9.20;;;4.27;;
3865;SDS011;1948;53.250;10.412;2023-06-01T07:38:24;18.90;;;5.30;;
3865;SDS011;1948;53.250;10.412;2023-06-01T07:40:54;8.93;;;4.90;;
3865;SDS011;1948;53.250;10.412;2023-06-01T07:43:21;18.77;;;4.70;;
3865;SDS011;1948;53.250;10.412;2023-06-01T07:45:48;15.60;;;4.60;;
3865;SDS011;1948;53.250;10.412;2023-06-01T07:48:15;12.00;;;4.70;;
3865;SDS011;1948;53.250;10.412;2023-06-01T07:50:42;14.83;;;4.57;;
3865;SDS011;1948;53.250;10.412;2023-06-01T07:53:12;12.13;;;5.07;;
3865;SDS011;1948;53.250;10.412;2023-06-01T07:55:44;13.53;;;4.60;;
3865;SDS011;1948;53.250;10.412;2023-06-01T07:58:11;34.43;;;4.93;;
3865;SDS011;1948;53.250;10.412;2023-06-01T08:00:38;15.20;;;4.60;;
3865;SDS011;1948;53.250;10.412;2023-06-01T08:03:05;12.10;;;4.60;;
3865;SDS011;1948;53.250;10.412;2023-06-01T08:05:35;13.83;;;4.50;;
3865;SDS011;1948;53.250;10.412;2023-06-01T08:08:04;19.83;;;5.43;;
3865;SDS011;1948;53.250;10.412;2023-06-01T08:10:31;11.97;;;4.90;;
3865;SDS011;1948;53.250;10.412;2023-06-01T08:12:58;16.30;;;4.07;;
3865;SDS011;1948;53.250;10.412;2023-06-01T08:15:25;21.60;;;5.13;;
3865;SDS011;1948;53.250;10.412;2023-06-01T08:17:53;14.13;;;4.37;;
3865;SDS011;1948;53.250;10.412;2023-06-01T08:20:23;12.73;;;4.70;;
3865;SDS011;1948;53.250;10.412;2023-06-01T08:22:52;10.30;;;4.63;;
3865;SDS011;1948;53.250;10.412;2023-06-01T08:25:19;9.27;;;4.23;;
3865;SDS011;1948;53.250;10.412;2023-06-01T08:27:46;12.13;;;4.50;;
3865;SDS011;1948;53.250;10.412;2023-06-01T08:30:13;5.23;;;3.50;;
3865;SDS011;1948;53.250;10.412;2023-06-01T08:32:45;13.43;;;5.03;;
3865;SDS011;1948;53.250;10.412;2023-06-01T08:35:15;13.30;;;4.17;;
3865;SDS011;1948;53.250;10.412;2023-06-01T08:37:42;18.70;;;4.27;;
3865;SDS011;1948;53.250;10.412;2023-06-01T08:40:09;12.77;;;4.10;;
3865;SDS011;1948;53.250;10.412;2023-06-01T08:42:49;7.10;;;3.73;;
3865;SDS011;1948;53.250;10.412;2023-06-01T08:45:43;7.40;;;4.27;;
3865;SDS011;1948;53.250;10.412;2023-06-01T08:48:17;10.27;;;3.93;;
3865;SDS011;1948;53.250;10.412;2023-06-01T08:50:50;13.23;;;4.10;;
3865;SDS011;1948;53.250;10.412;2023-06-01T08:53:20;11.10;;;5.00;;
3865;SDS011;1948;53.250;10.412;2023-06-01T08:55:52;15.10;;;4.20;;
3865;SDS011;1948;53.250;10.412;2023-06-01T08:58:23;18.00;;;4.87;;
3865;SDS011;1948;53.250;10.412;2023-06-01T09:00:51;9.13;;;4.07;;
3865;SDS011;1948;53.250;10.412;2023-06-01T09:03:20;11.57;;;4.10;;
3865;SDS011;1948;53.250;10.412;2023-06-01T09:05:47;4.93;;;3.83;;
3865;SDS011;1948;53.250;10.412;2023-06-01T09:08:14;12.03;;;4.63;;
3865;SDS011;1948;53.250;10.412;2023-06-01T09:10:42;15.07;;;4.43;;
3865;SDS011;1948;53.250;10.412;2023-06-01T09:13:09;22.67;;;5.07;;
3865;SDS011;1948;53.250;10.412;2023-06-01T09:15:38;20.03;;;4.30;;
3865;SDS011;1948;53.250;10.412;2023-06-01T09:18:18;17.40;;;4.87;;
3865;SDS011;1948;53.250;10.412;2023-06-01T09:20:48;9.83;;;4.27;;
3865;SDS011;1948;53.250;10.412;2023-06-01T09:23:24;20.93;;;4.33;;
3865;SDS011;1948;53.250;10.412;2023-06-01T09:29:00;26.53;;;4.53;;
3865;SDS011;1948;53.250;10.412;2023-06-01T09:31:46;19.07;;;3.93;;
3865;SDS011;1948;53.250;10.412;2023-06-01T09:34:19;14.80;;;3.73;;
3865;SDS011;1948;53.250;10.412;2023-06-01T09:36:48;14.00;;;5.17;;
3865;SDS011;1948;53.250;10.412;2023-06-01T09:39:20;19.17;;;4.43;;
3865;SDS011;1948;53.250;10.412;2023-06-01T09:46:55;10.13;;;5.23;;
3865;SDS011;1948;53.250;10.412;2023-06-01T09:49:26;7.90;;;3.37;;
3865;SDS011;1948;53.250;10.412;2023-06-01T09:54:36;9.23;;;4.13;;
3865;SDS011;1948;53.250;10.412;2023-06-01T09:57:04;9.93;;;4.00;;
3865;SDS011;1948;53.250;10.412;2023-06-01T09:59:41;20.47;;;4.73;;
3865;SDS011;1948;53.250;10.412;2023-06-01T10:02:14;15.70;;;4.50;;
3865;SDS011;1948;53.250;10.412;2023-06-01T10:04:49;7.40;;;3.50;;
3865;SDS011;1948;53.250;10.412;2023-06-01T10:07:31;11.10;;;4.07;;
3865;SDS011;1948;53.250;10.412;2023-06-01T10:10:05;11.57;;;4.40;;
3865;SDS011;1948;53.250;10.412;2023-06-01T10:12:32;9.93;;;3.87;;
3865;SDS011;1948;53.250;10.412;2023-06-01T10:15:01;8.57;;;3.73;;
3865;SDS011;1948;53.250;10.412;2023-06-01T10:17:52;19.03;;;5.40;;
3865;SDS011;1948;53.250;10.412;2023-06-01T10:20:22;11.47;;;4.67;;
3865;SDS011;1948;53.250;10.412;2023-06-01T10:22:50;13.17;;;4.20;;
3865;SDS011;1948;53.250;10.412;2023-06-01T10:25:20;20.07;;;4.40;;
3865;SDS011;1948;53.250;10.412;2023-06-01T10:28:01;20.60;;;3.90;;
3865;SDS011;1948;53.250;10.412;2023-06-01T10:30:31;15.40;;;3.83;;
3865;SDS011;1948;53.250;10.412;2023-06-01T10:33:01;10.70;;;4.00;;
3865;SDS011;1948;53.250;10.412;2023-06-01T10:40:43;12.50;;;3.50;;
3865;SDS011;1948;53.250;10.412;2023-06-01T10:49:01;12.90;;;3.10;;
3865;SDS011;1948;53.250;10.412;2023-06-01T10:51:29;15.70;;;3.70;;
3865;SDS011;1948;53.250;10.412;2023-06-01T10:54:23;4.80;;;2.60;;
3865;SDS011;1948;53.250;10.412;2023-06-01T11:02:42;9.90;;;2.90;;
3865;SDS011;1948;53.250;10.412;2023-06-01T11:07:59;6.17;;;3.00;;
3865;SDS011;1948;53.250;10.412;2023-06-01T11:13:44;7.57;;;4.03;;
3865;SDS011;1948;53.250;10.412;2023-06-01T11:16:36;8.13;;;3.23;;
3865;SDS011;1948;53.250;10.412;2023-06-01T11:19:07;16.00;;;3.40;;
3865;SDS011;1948;53.250;10.412;2023-06-01T11:21:41;3.80;;;3.03;;
3865;SDS011;1948;53.250;10.412;2023-06-01T11:24:11;12.00;;;3.67;;
3865;SDS011;1948;53.250;10.412;2023-06-01T11:26:44;11.67;;;3.73;;
3865;SDS011;1948;53.250;10.412;2023-06-01T11:29:20;18.30;;;3.10;;
3865;SDS011;1948;53.250;10.412;2023-06-01T11:31:55;11.97;;;3.73;;
3865;SDS011;1948;53.250;10.412;2023-06-01T11:34:32;13.33;;;3.43;;
3865;SDS011;1948;53.250;10.412;2023-06-01T11:37:14;11.00;;;3.50;;
3865;SDS011;1948;53.250;10.412;2023-06-01T11:39:43;9.63;;;4.77;;
3865;SDS011;1948;53.250;10.412;2023-06-01T11:42:15;12.00;;;4.03;;
3865;SDS011;1948;53.250;10.412;2023-06-01T11:44:55;10.40;;;3.70;;
3865;SDS011;1948;53.250;10.412;2023-06-01T11:47:27;10.50;;;3.10;;
3865;SDS011;1948;53.250;10.412;2023-06-01T11:50:01;17.90;;;3.20;;
3865;SDS011;1948;53.250;10.412;2023-06-01T11:52:28;6.40;;;3.00;;
3865;SDS011;1948;53.250;10.412;2023-06-01T11:55:01;16.70;;;4.33;;
3865;SDS011;1948;53.250;10.412;2023-06-01T11:57:29;18.83;;;4.20;;
3865;SDS011;1948;53.250;10.412;2023-06-01T11:59:58;16.40;;;3.50;;
3865;SDS011;1948;53.250;10.412;2023-06-01T12:02:29;6.40;;;3.50;;
3865;SDS011;1948;53.250;10.412;2023-06-01T12:05:02;9.93;;;3.50;;
3865;SDS011;1948;53.250;10.412;2023-06-01T12:07:46;9.03;;;3.87;;
3865;SDS011;1948;53.250;10.412;2023-06-01T12:10:18;6.33;;;3.40;;
3865;SDS011;1948;53.250;10.412;2023-06-01T12:12:46;13.53;;;3.80;;
3865;SDS011;1948;53.250;10.412;2023-06-01T12:15:17;8.03;;;3.40;;
3865;SDS011;1948;53.250;10.412;2023-06-01T12:17:48;15.13;;;3.30;;
3865;SDS011;1948;53.250;10.412;2023-06-01T12:20:30;5.43;;;2.87;;
3865;SDS011;1948;53.250;10.412;2023-06-01T12:22:58;8.77;;;3.17;;
3865;SDS011;1948;53.250;10.412;2023-06-01T12:25:48;6.43;;;3.27;;
3865;SDS011;1948;53.250;10.412;2023-06-01T12:28:23;10.10;;;3.53;;
3865;SDS011;1948;53.250;10.412;2023-06-01T12:31:11;7.87;;;3.47;;
3865;SDS011;1948;53.250;10.412;2023-06-01T12:33:44;8.77;;;3.23;;
3865;SDS011;1948;53.250;10.412;2023-06-01T12:36:28;15.00;;;3.73;;
3865;SDS011;1948;53.250;10.412;2023-06-01T12:38:57;6.70;;;3.23;;
3865;SDS011;1948;53.250;10.412;2023-06-01T12:41:29;9.37;;;3.50;;
3865;SDS011;1948;53.250;10.412;2023-06-01T12:43:56;5.97;;;3.70;;
3865;SDS011;1948;53.250;10.412;2023-06-01T12:46:25;7.23;;;3.27;;
3865;SDS011;1948;53.250;10.412;2023-06-01T12:49:14;18.10;;;3.70;;
3865;SDS011;1948;53.250;10.412;2023-06-01T12:51:43;10.87;;;3.17;;
3865;SDS011;1948;53.250;10.412;2023-06-01T12:54:14;10.30;;;3.77;;
3865;SDS011;1948;53.250;10.412;2023-06-01T12:56:41;13.37;;;4.07;;
3865;SDS011;1948;53.250;10.412;2023-06-01T12:59:11;16.50;;;3.93;;
3865;SDS011;1948;53.250;10.412;2023-06-01T13:01:40;10.50;;;4.10;;
3865;SDS011;1948;53.250;10.412;2023-06-01T13:04:07;10.30;;;4.00;;
3865;SDS011;1948;53.250;10.412;2023-06-01T13:06:38;32.03;;;4.10;;
3865;SDS011;1948;53.250;10.412;2023-06-01T13:09:05;22.33;;;4.20;;
3865;SDS011;1948;53.250;10.412;2023-06-01T13:11:33;13.10;;;3.90;;
3865;SDS011;1948;53.250;10.412;2023-06-01T13:14:00;23.90;;;3.83;;
3865;SDS011;1948;53.250;10.412;2023-06-01T13:16:32;11.83;;;3.50;;
3865;SDS011;1948;53.250;10.412;2023-06-01T13:18:59;8.03;;;3.00;;
3865;SDS011;1948;53.250;10.412;2023-06-01T13:21:30;7.63;;;3.10;;
3865;SDS011;1948;53.250;10.412;2023-06-01T13:24:01;12.73;;;3.70;;
3865;SDS011;1948;53.250;10.412;2023-06-01T13:26:33;9.50;;;3.83;;
3865;SDS011;1948;53.250;10.412;2023-06-01T13:29:00;9.33;;;3.13;;
3865;SDS011;1948;53.250;10.412;2023-06-01T13:31:27;9.10;;;2.90;;
3865;SDS011;1948;53.250;10.412;2023-06-01T13:33:56;10.67;;;3.80;;
3865;SDS011;1948;53.250;10.412;2023-06-01T13:36:27;11.37;;;3.73;;
3865;SDS011;1948;53.250;10.412;2023-06-01T13:38:56;18.77;;;4.50;;
3865;SDS011;1948;53.250;10.412;2023-06-01T13:41:24;4.50;;;3.13;;
3865;SDS011;1948;53.250;10.412;2023-06-01T13:43:51;11.40;;;3.03;;
3865;SDS011;1948;53.250;10.412;2023-06-01T13:46:23;7.20;;;2.77;;
3865;SDS011;1948;53.250;10.412;2023-06-01T13:48:50;14.20;;;3.13;;
3865;SDS011;1948;53.250;10.412;2023-06-01T13:51:17;13.23;;;3.27;;
3865;SDS011;1948;53.250;10.412;2023-06-01T13:53:49;17.27;;;3.73;;
3865;SDS011;1948;53.250;10.412;2023-06-01T13:56:16;10.10;;;3.40;;
3865;SDS011;1948;53.250;10.412;2023-06-01T13:58:45;12.80;;;3.57;;
3865;SDS011;1948;53.250;10.412;2023-06-01T14:01:12;12.47;;;3.70;;
3865;SDS011;1948;53.250;10.412;2023-06-01T14:03:39;9.90;;;3.53;;
3865;SDS011;1948;53.250;10.412;2023-06-01T14:06:06;10.63;;;3.37;;
3865;SDS011;1948;53.250;10.412;2023-06-01T14:08:34;12.80;;;3.67;;
3865;SDS011;1948;53.250;10.412;2023-06-01T14:11:03;10.57;;;3.73;;
3865;SDS011;1948;53.250;10.412;2023-06-01T14:13:33;5.70;;;2.93;;
3865;SDS011;1948;53.250;10.412;2023-06-01T14:16:00;6.27;;;2.40;;
3865;SDS011;1948;53.250;10.412;2023-06-01T14:18:30;4.87;;;2.70;;
3865;SDS011;1948;53.250;10.412;2023-06-01T14:20:57;12.70;;;2.37;;
3865;SDS011;1948;53.250;10.412;2023-06-01T14:23:26;12.70;;;2.90;;
3865;SDS011;1948;53.250;10.412;2023-06-01T14:25:56;6.53;;;2.67;;
3865;SDS011;1948;53.250;10.412;2023-06-01T14:28:26;4.80;;;2.20;;
3865;SDS011;1948;53.250;10.412;2023-06-01T14:30:53;7.23;;;3.20;;
3865;SDS011;1948;53.250;10.412;2023-06-01T14:33:20;16.10;;;3.27;;
3865;SDS011;1948;53.250;10.412;2023-06-01T14:35:49;11.03;;;2.67;;
3865;SDS011;1948;53.250;10.412;2023-06-01T14:38:16;16.67;;;3.07;;
3865;SDS011;1948;53.250;10.412;2023-06-01T14:40:46;4.00;;;2.37;;
3865;SDS011;1948;53.250;10.412;2023-06-01T14:43:13;4.30;;;2.10;;
3865;SDS011;1948;53.250;10.412;2023-06-01T14:45:43;15.63;;;2.60;;
3865;SDS011;1948;53.250;10.412;2023-06-01T14:48:10;7.47;;;2.57;;
3865;SDS011;1948;53.250;10.412;2023-06-01T14:50:37;4.10;;;1.77;;
3865;SDS011;1948;53.250;10.412;2023-06-01T14:53:04;9.20;;;2.70;;
3865;SDS011;1948;53.250;10.412;2023-06-01T14:55:32;17.37;;;2.77;;
3865;SDS011;1948;53.250;10.412;2023-06-01T14:58:02;9.60;;;2.40;;
3865;SDS011;1948;53.250;10.412;2023-06-01T15:00:32;15.43;;;3.40;;
3865;SDS011;1948;53.250;10.412;2023-06-01T15:03:02;11.57;;;2.40;;
3865;SDS011;1948;53.250;10.412;2023-06-01T15:05:30;10.03;;;2.93;;
3865;SDS011;1948;53.250;10.412;2023-06-01T15:08:00;29.57;;;2.70;;
3865;SDS011;1948;53.250;10.412;2023-06-01T15:10:32;19.67;;;5.47;;
3865;SDS011;1948;53.250;10.412;2023-06-01T15:13:04;9.50;;;3.37;;
3865;SDS011;1948;53.250;10.412;2023-06-01T15:15:34;12.33;;;4.40;;
3865;SDS011;1948;53.250;10.412;2023-06-01T15:18:03;15.73;;;4.80;;
3865;SDS011;1948;53.250;10.412;2023-06-01T15:20:31;12.20;;;3.20;;
3865;SDS011;1948;53.250;10.412;2023-06-01T15:22:58;18.37;;;3.13;;
3865;SDS011;1948;53.250;10.412;2023-06-01T15:25:28;9.13;;;2.60;;
3865;SDS011;1948;53.250;10.412;2023-06-01T15:27:56;18.80;;;3.30;;
3865;SDS011;1948;53.250;10.412;2023-06-01T15:30:23;10.70;;;2.60;;
3865;SDS011;1948;53.250;10.412;2023-06-01T15:32:50;11.53;;;2.60;;
3865;SDS011;1948;53.250;10.412;2023-06-01T15:35:32;7.40;;;2.43;;
3865;SDS011;1948;53.250;10.412;2023-06-01T15:38:02;13.20;;;2.83;;
3865;SDS011;1948;53.250;10.412;2023-06-01T15:40:33;8.47;;;2.43;;
3865;SDS011;1948;53.250;10.412;2023-06-01T15:43:01;14.40;;;2.57;;
3865;SDS011;1948;53.250;10.412;2023-06-01T15:45:30;20.70;;;2.43;;
3865;SDS011;1948;53.250;10.412;2023-06-01T15:47:57;5.97;;;2.37;;
3865;SDS011;1948;53.250;10.412;2023-06-01T15:50:26;16.27;;;2.70;;